Time;durP1;ratioP1;P1;durP2;ratioP2;P2;SDS_P1;SDS_P2;PMS_P1;PMS_P2;Temp;Humidity;BMP_temperature;BMP_pressure;BME280_temperature;BME280_humidity;BME280_pressure;Samples;Min_cycle;Max_cycle;Signal;HPM_P1;HPM_P2
2022/08/04 00:01:02;;;;;;;4.07;1.55;;;;;;;23.09;77.07;100244.22;8329267;28;20455;-50
2022/08/04 00:05:05;;;;;;;4.22;1.42;;;;;;;23.27;76.66;100246.19;8328782;28;20406;-50
2022/08/04 00:09:12;;;;;;;3.55;1.50;;;;;;;22.90;78.83;100246.09;8329796;28;20037;-50
2022/08/04 00:13:14;;;;;;;6.93;1.38;;;;;;;23.11;76.60;100234.63;8329501;28;20029;-49
2022/08/04 00:17:19;;;;;;;2.97;1.30;;;;;;;22.42;80.55;100239.47;8329704;28;20045;-48
2022/08/04 00:21:23;;;;;;;4.13;1.08;;;;;;;22.30;81.15;100238.53;8320700;28;20465;-48
2022/08/04 00:25:24;;;;;;;2.65;1.30;;;;;;;22.45;80.58;100239.03;8328913;28;20064;-49
2022/08/04 00:29:26;;;;;;;7.18;1.80;;;;;;;22.52;80.05;100237.13;8328177;28;20049;-48
2022/08/04 00:33:26;;;;;;;3.67;1.20;;;;;;;22.65;78.94;100231.47;8329159;28;20045;-48
2022/08/04 00:37:27;;;;;;;4.88;1.33;;;;;;;22.51;80.44;100229.91;8328812;28;20573;-49
2022/08/04 00:42:03;;;;;;;3.33;1.13;;;;;;;22.83;78.41;100222.41;8328723;28;20049;-52
2022/08/04 00:46:43;;;;;;;3.83;1.33;;;;;;;22.45;79.77;100230.75;8327797;28;20618;-48
2022/08/04 00:50:58;;;;;;;2.47;1.60;;;;;;;22.55;78.52;100228.41;8325182;28;20045;-51
2022/08/04 00:55:38;;;;;;;4.50;1.70;;;;;;;22.03;82.12;100233.41;8327315;28;20041;-52
2022/08/04 01:04:07;;;;;;;2.53;1.10;;;;;;;21.59;84.48;100239.75;8332281;27;20396;-49
2022/08/04 01:08:47;;;;;;;6.00;1.60;;;;;;;21.51;84.41;100237.25;8320905;28;20120;-48
2022/08/04 01:17:32;;;;;;;4.85;1.60;;;;;;;21.42;84.29;100241.31;8291404;28;20874;-58
2022/08/04 01:22:12;;;;;;;5.43;1.60;;;;;;;21.71;82.90;100237.16;8225290;28;20495;-52
2022/08/04 01:26:43;;;;;;;6.60;1.90;;;;;;;21.65;83.24;100227.88;8254587;28;20058;-51
2022/08/04 01:30:47;;;;;;;9.38;2.05;;;;;;;21.50;84.08;100235.53;8230120;28;20042;-51
2022/08/04 01:34:58;;;;;;;7.25;1.70;;;;;;;21.39;85.06;100228.00;8223803;28;20054;-48
2022/08/04 01:39:39;;;;;;;4.53;1.50;;;;;;;20.96;87.26;100218.59;8249110;28;20499;-50
2022/08/04 01:43:20;;;;;;;7.03;1.50;;;;;;;21.09;86.50;100219.41;8253618;28;20070;-52
2022/08/04 01:47:21;;;;;;;7.30;2.80;;;;;;;21.22;86.08;100224.00;8237236;28;20514;-52
2022/08/04 01:51:23;;;;;;;4.35;1.90;;;;;;;21.28;85.50;100221.25;8224205;28;20042;-50
2022/08/04 01:55:27;;;;;;;5.65;1.95;;;;;;;21.14;86.06;100210.53;8247284;28;20034;-50
2022/08/04 01:59:29;;;;;;;7.90;1.98;;;;;;;21.34;85.35;100217.63;8247816;28;20049;-48
2022/08/04 02:03:32;;;;;;;5.72;1.77;;;;;;;21.42;84.65;100205.56;8254432;28;20047;-48
2022/08/04 02:08:12;;;;;;;8.63;1.92;;;;;;;21.35;84.78;100202.00;8254189;28;20410;-50
2022/08/04 02:12:39;;;;;;;5.10;1.85;;;;;;;21.40;84.20;100207.66;8253855;28;20046;-48
2022/08/04 02:16:51;;;;;;;4.45;1.60;;;;;;;21.24;84.66;100202.66;8252707;28;20053;-48
2022/08/04 02:20:58;;;;;;;5.97;2.47;;;;;;;20.88;86.49;100202.28;8253929;28;20098;-51
2022/08/04 02:25:05;;;;;;;8.80;1.90;;;;;;;20.75;86.94;100194.94;8252078;28;20034;-49
2022/08/04 02:29:18;;;;;;;6.72;2.03;;;;;;;20.73;86.35;100188.78;8204646;28;20442;-48
2022/08/04 02:33:26;;;;;;;8.57;2.30;;;;;;;20.56;87.59;100194.97;8226631;28;20043;-48
2022/08/04 02:37:31;;;;;;;10.25;2.13;;;;;;;20.52;86.87;100186.28;8212432;28;20069;-50
2022/08/04 02:41:32;;;;;;;4.65;2.50;;;;;;;20.51;86.32;100189.25;8204141;28;20032;-48
2022/08/04 02:45:36;;;;;;;5.50;1.73;;;;;;;20.33;87.58;100181.66;8205211;28;20479;-48
2022/08/04 02:49:37;;;;;;;5.97;2.20;;;;;;;20.18;88.21;100171.91;8197932;28;20710;-50
2022/08/04 02:53:40;;;;;;;6.03;2.00;;;;;;;20.06;88.59;100173.59;8210478;28;20050;-48
2022/08/04 02:57:43;;;;;;;6.72;1.88;;;;;;;20.13;88.55;100171.72;8226344;28;20535;-49
2022/08/04 03:01:43;;;;;;;3.55;2.00;;;;;;;20.11;88.85;100166.41;8223016;28;20035;-48
2022/08/04 03:06:23;;;;;;;8.40;2.00;;;;;;;20.09;89.11;100168.50;8231074;28;20657;-51
2022/08/04 03:15:35;;;;;;;4.75;2.20;;;;;;;19.93;90.07;100162.59;8391783;27;20422;-49
2022/08/04 03:20:16;;;;;;;4.45;2.10;;;;;;;19.89;90.47;100161.31;8387223;28;20048;-48
2022/08/04 03:29:13;;;;;;;3.10;2.03;;;;;;;19.82;90.84;100155.81;8393892;27;20608;-48
2022/08/04 03:33:41;;;;;;;5.43;2.05;;;;;;;19.80;91.20;100154.34;8378987;28;20048;-49
2022/08/04 03:47:06;;;;;;;5.78;2.53;;;;;;;19.69;91.49;100154.94;8328798;27;20495;-48
2022/08/04 03:56:34;;;;;;;5.53;2.83;;;;;;;19.52;92.57;100160.81;8350401;28;20123;-49
2022/08/04 04:01:00;;;;;;;6.38;2.05;;;;;;;19.52;92.75;100155.34;8353543;28;20422;-48
2022/08/04 04:05:40;;;;;;;9.27;2.67;;;;;;;19.54;92.69;100157.03;8351103;28;20041;-48
2022/08/04 04:10:21;;;;;;;8.50;3.05;;;;;;;19.67;92.10;100162.56;8353137;28;20045;-48
2022/08/04 04:15:02;;;;;;;8.18;3.25;;;;;;;19.67;92.01;100168.03;8335147;28;20080;-50
2022/08/04 04:19:31;;;;;;;6.00;2.50;;;;;;;19.71;91.63;100172.91;8332632;28;20044;-49
2022/08/04 04:24:02;;;;;;;4.68;2.40;;;;;;;19.82;91.39;100165.97;8340002;28;20048;-52
2022/08/04 04:28:28;;;;;;;5.50;2.80;;;;;;;19.91;90.57;100176.50;8334500;28;20049;-49
2022/08/04 04:32:57;;;;;;;4.20;2.80;;;;;;;19.93;90.74;100173.56;8340952;28;20518;-49
2022/08/04 04:37:35;;;;;;;9.27;3.92;;;;;;;20.06;90.08;100168.13;8319499;28;20084;-50
2022/08/04 04:41:52;;;;;;;9.85;2.80;;;;;;;20.26;89.27;100171.72;8319856;28;20038;-48
2022/08/04 04:46:21;;;;;;;5.20;2.80;;;;;;;20.46;88.29;100164.34;8312530;28;20693;-49
2022/08/04 04:50:33;;;;;;;10.20;3.42;;;;;;;20.58;87.84;100165.34;8319533;28;20041;-51
2022/08/04 04:54:39;;;;;;;11.90;2.97;;;;;;;20.62;87.58;100169.38;8316584;28;20034;-49
2022/08/04 04:58:41;;;;;;;7.55;3.20;;;;;;;20.96;85.95;100180.13;8296726;28;20128;-49
2022/08/04 05:03:08;;;;;;;10.43;2.63;;;;;;;21.22;84.25;100188.25;8295490;28;20367;-48
2022/08/04 05:07:29;;;;;;;13.45;3.15;;;;;;;21.41;83.56;100187.38;8300262;28;20046;-48
2022/08/04 05:11:53;;;;;;;10.15;2.95;;;;;;;21.56;83.12;100185.16;8294095;28;20510;-50
2022/08/04 05:16:00;;;;;;;10.00;3.00;;;;;;;21.60;82.98;100186.41;8296448;28;20034;-48
2022/08/04 05:20:23;;;;;;;13.38;3.67;;;;;;;21.54;83.25;100181.78;8296387;28;20403;-50
2022/08/04 05:24:26;;;;;;;13.27;3.33;;;;;;;21.63;83.35;100185.97;8297790;28;20501;-48
2022/08/04 05:28:38;;;;;;;15.13;3.00;;;;;;;21.69;83.23;100182.34;8296261;28;20129;-48
2022/08/04 05:32:46;;;;;;;10.45;3.25;;;;;;;21.94;82.73;100188.78;8296791;28;20030;-50
2022/08/04 05:36:57;;;;;;;11.13;3.20;;;;;;;22.06;81.82;100187.00;8296356;28;20518;-47
2022/08/04 05:40:58;;;;;;;12.20;3.50;;;;;;;22.14;81.36;100178.47;8296361;28;20522;-48
2022/08/04 05:44:59;;;;;;;11.07;3.13;;;;;;;22.26;81.75;100182.19;8294809;28;20046;-48
2022/08/04 05:49:01;;;;;;;9.73;3.35;;;;;;;22.37;81.33;100188.88;8310330;28;20041;-50
2022/08/04 05:53:03;;;;;;;13.88;3.50;;;;;;;22.60;81.02;100180.88;8316236;28;20046;-48
2022/08/04 05:57:05;;;;;;;4.82;3.15;;;;;;;23.06;79.76;100184.81;8322478;28;20050;-48
2022/08/04 06:01:09;;;;;;;13.15;3.83;;;;;;;23.54;77.85;100171.09;8323493;28;20128;-51
2022/08/04 06:05:10;;;;;;;8.13;3.30;;;;;;;23.96;76.30;100181.16;8296193;28;20038;-49
2022/08/04 06:09:11;;;;;;;7.00;3.17;;;;;;;24.24;75.12;100166.72;8323492;28;20037;-48
2022/08/04 06:13:14;;;;;;;9.35;3.70;;;;;;;24.70;73.13;100166.78;8326078;28;20109;-49
2022/08/04 06:17:22;;;;;;;10.23;3.20;;;;;;;25.10;71.89;100173.25;8325011;28;20108;-49
2022/08/04 06:21:27;;;;;;;11.20;3.20;;;;;;;25.25;71.83;100170.78;8325449;28;20060;-49
2022/08/04 06:25:32;;;;;;;6.95;3.30;;;;;;;25.31;70.64;100178.09;8325268;28;20041;-49
2022/08/04 06:29:36;;;;;;;11.60;3.10;;;;;;;25.40;70.67;100173.91;8306707;28;20034;-48
2022/08/04 06:33:37;;;;;;;9.57;2.85;;;;;;;25.80;68.97;100174.72;8324245;28;20041;-48
2022/08/04 06:37:38;;;;;;;8.40;3.38;;;;;;;25.91;69.57;100184.91;8250552;28;20138;-50
2022/08/04 06:41:39;;;;;;;9.60;3.65;;;;;;;25.96;69.67;100178.63;8317601;28;20530;-49
2022/08/04 06:45:41;;;;;;;14.73;3.63;;;;;;;26.32;69.63;100179.03;8317307;28;20183;-51
2022/08/04 06:49:42;;;;;;;14.27;3.60;;;;;;;26.30;68.06;100186.78;8322285;28;20233;-50
2022/08/04 06:53:42;;;;;;;10.55;3.58;;;;;;;26.61;67.71;100180.66;8323063;28;20112;-50
2022/08/04 06:57:44;;;;;;;10.10;3.13;;;;;;;26.65;67.21;100189.31;8324984;28;20041;-48
2022/08/04 07:01:46;;;;;;;8.50;3.17;;;;;;;26.94;66.14;100187.28;8324658;28;20033;-52
2022/08/04 07:05:47;;;;;;;6.82;2.60;;;;;;;27.08;65.74;100177.50;8325089;28;20379;-50
2022/08/04 07:09:48;;;;;;;7.18;3.13;;;;;;;27.29;65.46;100185.88;8324948;28;20026;-50
2022/08/04 07:13:49;;;;;;;7.13;2.75;;;;;;;27.37;65.49;100181.81;8325300;28;20121;-49
2022/08/04 07:17:51;;;;;;;10.25;3.00;;;;;;;27.47;64.72;100187.53;8324873;28;20036;-48
2022/08/04 07:21:52;;;;;;;8.25;2.55;;;;;;;27.73;64.69;100186.72;8325355;28;20041;-48
2022/08/04 07:25:56;;;;;;;5.78;2.40;;;;;;;27.97;63.74;100182.59;8324576;28;20037;-49
2022/08/04 07:29:57;;;;;;;5.60;2.42;;;;;;;27.94;63.79;100183.09;8322882;28;20041;-49
2022/08/04 07:33:59;;;;;;;6.20;2.35;;;;;;;28.00;63.12;100182.06;8321685;28;20052;-49
2022/08/04 07:37:59;;;;;;;7.50;2.95;;;;;;;28.18;62.52;100178.91;8353770;28;20541;-50
2022/08/04 07:42:01;;;;;;;8.40;2.87;;;;;;;28.45;62.27;100179.72;8292148;28;20064;-51
2022/08/04 07:46:02;;;;;;;10.43;2.58;;;;;;;28.47;61.90;100185.88;8297211;28;20811;-49
2022/08/04 07:50:03;;;;;;;10.50;2.53;;;;;;;28.95;61.01;100179.28;8285746;28;20410;-49
2022/08/04 07:54:06;;;;;;;5.70;2.72;;;;;;;29.44;59.84;100178.75;8286320;28;20052;-50
2022/08/04 07:58:07;;;;;;;9.80;2.87;;;;;;;29.77;59.08;100183.09;8285744;28;20476;-49
2022/08/04 08:02:07;;;;;;;9.93;2.80;;;;;;;30.48;58.14;100184.09;8285956;28;20063;-51
2022/08/04 08:06:08;;;;;;;5.70;2.10;;;;;;;30.95;56.92;100185.47;8283364;28;20060;-49
2022/08/04 08:10:13;;;;;;;8.27;2.50;;;;;;;30.95;56.25;100181.88;8285788;28;20437;-49
2022/08/04 08:14:14;;;;;;;6.30;2.17;;;;;;;31.24;56.42;100177.31;8286000;28;20076;-51
2022/08/04 08:18:15;;;;;;;8.88;2.20;;;;;;;31.40;55.22;100171.44;8284328;28;20228;-49
2022/08/04 08:22:15;;;;;;;7.18;2.13;;;;;;;31.93;54.30;100175.41;8283725;28;20038;-49
2022/08/04 08:26:16;;;;;;;12.60;2.13;;;;;;;32.07;54.68;100165.22;8285052;28;20050;-49
2022/08/04 08:30:16;;;;;;;9.18;2.03;;;;;;;32.18;54.28;100172.44;8284978;28;20164;-50
2022/08/04 08:34:17;;;;;;;7.37;2.13;;;;;;;32.32;53.69;100156.66;8286661;28;20129;-49
2022/08/04 08:38:24;;;;;;;6.47;2.20;;;;;;;32.49;53.01;100162.72;8290426;28;20494;-53
2022/08/04 08:42:46;;;;;;;13.43;2.40;;;;;;;33.18;52.03;100156.75;8291213;28;20454;-49
2022/08/04 08:47:03;;;;;;;9.43;1.80;;;;;;;33.22;51.81;100155.00;8287486;28;20048;-49
2022/08/04 08:51:30;;;;;;;7.05;1.85;;;;;;;33.79;51.01;100161.31;8291766;28;20045;-53
2022/08/04 08:55:41;;;;;;;7.60;2.30;;;;;;;33.91;50.50;100158.91;8306488;28;20057;-50
2022/08/04 09:00:08;;;;;;;9.65;2.05;;;;;;;34.07;50.22;100169.94;8317378;28;20104;-50
2022/08/04 09:04:49;;;;;;;10.10;1.95;;;;;;;34.71;48.33;100175.66;8324000;28;20073;-50
2022/08/04 09:09:18;;;;;;;6.50;1.35;;;;;;;35.06;47.97;100172.22;8312532;28;20486;-50
2022/08/04 09:13:29;;;;;;;5.28;1.23;;;;;;;34.63;46.55;100171.56;8305377;28;20112;-51
2022/08/04 09:17:38;;;;;;;2.30;1.33;;;;;;;34.76;45.18;100165.16;8289749;28;20742;-53
2022/08/04 09:21:47;;;;;;;6.32;1.30;;;;;;;34.63;46.46;100170.72;8286275;28;20050;-52
2022/08/04 09:26:00;;;;;;;8.45;1.63;;;;;;;34.86;45.31;100175.41;8290035;28;20041;-50
2022/08/04 09:30:09;;;;;;;3.83;1.30;;;;;;;35.09;43.59;100174.41;8317706;28;20041;-53
2022/08/04 09:34:19;;;;;;;2.45;0.90;;;;;;;35.30;42.77;100172.88;8322012;28;20039;-49
2022/08/04 09:38:31;;;;;;;6.82;1.20;;;;;;;35.39;42.73;100179.47;8323092;28;20552;-51
2022/08/04 09:47:16;;;;;;;3.88;0.82;;;;;;;36.68;39.31;100180.47;8392574;27;20427;-52
2022/08/04 09:51:35;;;;;;;4.90;0.90;;;;;;;36.14;40.41;100191.94;8389534;28;20089;-50
2022/08/04 09:56:16;;;;;;;7.53;1.38;;;;;;;37.12;40.34;100186.13;8393347;28;20040;-52
2022/08/04 10:00:19;;;;;;;4.78;1.30;;;;;;;37.81;39.45;100180.78;8385054;28;20037;-53
2022/08/04 10:04:21;;;;;;;;;;;;;;;37.51;39.65;100187.31;8379575;28;20440;-53
2022/08/04 10:08:50;;;;;;;6.70;1.10;;;;;;;36.93;41.38;100188.31;8392598;28;19924;-51
2022/08/04 10:13:14;;;;;;;5.45;1.27;;;;;;;36.14;42.01;100191.94;8394544;28;20033;-50
2022/08/04 10:17:34;;;;;;;11.45;1.90;;;;;;;35.89;42.85;100184.09;8382628;28;20036;-49
2022/08/04 10:26:28;;;;;;;6.53;1.90;;;;;;;35.92;44.27;100200.34;8258312;28;20410;-51
2022/08/04 10:30:32;;;;;;;6.32;1.85;;;;;;;35.99;45.32;100212.00;8230703;28;20089;-51
2022/08/04 10:34:43;;;;;;;13.55;1.80;;;;;;;37.79;43.17;100206.53;8237846;28;20093;-50
2022/08/04 10:38:55;;;;;;;10.95;1.90;;;;;;;38.18;41.26;100216.94;8257659;28;20045;-52
2022/08/04 10:43:04;;;;;;;9.50;1.50;;;;;;;39.91;39.00;100223.69;8248045;28;20411;-50
2022/08/04 10:47:13;;;;;;;4.72;1.20;;;;;;;40.87;37.59;100218.66;8246060;28;20045;-51
2022/08/04 10:51:38;;;;;;;10.40;1.25;;;;;;;38.88;38.64;100223.13;8244041;28;20480;-49
2022/08/04 10:55:48;;;;;;;5.35;1.42;;;;;;;36.84;42.11;100223.25;8248515;28;20394;-52
2022/08/04 11:00:00;;;;;;;5.95;1.63;;;;;;;36.63;43.26;100222.06;8246101;28;20031;-50
2022/08/04 11:04:08;;;;;;;8.30;1.70;;;;;;;36.23;41.93;100223.00;8249004;28;20054;-50
2022/08/04 11:08:14;;;;;;;5.40;1.67;;;;;;;35.95;43.58;100213.75;8248834;28;20274;-50
2022/08/04 11:12:20;;;;;;;11.00;1.63;;;;;;;36.08;43.51;100221.38;8248974;28;20039;-52
2022/08/04 11:16:26;;;;;;;11.48;1.70;;;;;;;36.19;44.07;100221.97;8237609;28;20066;-53
2022/08/04 11:20:34;;;;;;;9.43;1.60;;;;;;;35.94;43.49;100220.53;8253204;28;20166;-50
2022/08/04 11:33:35;;;;;;;11.25;1.83;;;;;;;35.22;45.39;100236.28;8285824;28;20360;-51
2022/08/04 11:37:45;;;;;;;17.45;1.90;;;;;;;34.16;46.81;100241.09;8276004;28;20057;-49
2022/08/04 11:42:25;;;;;;;3.83;1.40;;;;;;;33.45;48.25;100236.34;8280644;28;20410;-50
2022/08/04 11:46:33;;;;;;;8.20;1.63;;;;;;;33.34;48.28;100222.72;8280314;28;20072;-53
2022/08/04 11:50:43;;;;;;;9.77;1.70;;;;;;;33.43;48.90;100224.63;8280180;28;20518;-52
2022/08/04 11:54:45;;;;;;;10.93;2.53;;;;;;;33.71;50.19;100246.16;8280915;28;20037;-50
2022/08/04 11:58:46;;;;;;;9.30;1.60;;;;;;;33.83;49.53;100252.19;8279734;28;20038;-50
2022/08/04 12:03:13;;;;;;;4.95;1.20;;;;;;;33.75;48.35;100255.63;8280753;28;20034;-52
2022/08/04 12:07:20;;;;;;;13.52;1.50;;;;;;;33.61;48.35;100260.28;8312361;28;20422;-51
2022/08/04 12:15:49;;;;;;;7.93;2.08;;;;;;;33.82;48.12;100272.94;8387835;27;20407;-51
2022/08/04 12:19:51;;;;;;;;;;;;;;;33.37;48.90;100267.84;8385017;28;20051;-51
2022/08/04 12:23:57;;;;;;;6.22;1.50;;;;;;;33.06;49.04;100260.00;8393372;28;20931;-49
2022/08/04 12:28:04;;;;;;;6.82;1.30;;;;;;;32.62;49.76;100259.22;8405782;28;20065;-52
2022/08/04 12:32:31;;;;;;;5.03;1.20;;;;;;;32.69;50.31;100256.94;8387309;28;20060;-50
2022/08/04 12:36:54;;;;;;;6.93;1.90;;;;;;;33.22;49.63;100239.94;8389119;28;20519;-49
2022/08/04 12:40:57;;;;;;;6.93;1.42;;;;;;;33.60;49.30;100247.38;8398195;28;20032;-50
2022/08/04 12:44:58;;;;;;;6.60;1.90;;;;;;;33.39;49.70;100233.91;8385687;28;20040;-51
2022/08/04 12:49:01;;;;;;;6.00;1.55;;;;;;;34.16;48.87;100232.66;8390735;28;20531;-50
2022/08/04 12:53:09;;;;;;;;;;;;;;;34.18;48.76;100230.41;8395015;28;20572;-52
2022/08/04 12:57:13;;;;;;;11.10;1.52;;;;;;;33.10;50.72;100236.69;8391198;28;19963;-49
2022/08/04 13:01:18;;;;;;;7.55;1.60;;;;;;;32.92;50.80;100234.63;8375811;28;20045;-52
2022/08/04 13:05:21;;;;;;;5.03;1.45;;;;;;;33.63;50.05;100238.38;8393407;28;20417;-50
2022/08/04 13:09:25;;;;;;;8.15;2.30;;;;;;;33.61;49.83;100242.63;8398882;28;20162;-52
2022/08/04 13:13:30;;;;;;;10.02;2.10;;;;;;;34.43;49.51;100244.09;8399038;28;20032;-50
2022/08/04 13:17:47;;;;;;;5.15;2.10;;;;;;;34.17;49.59;100248.38;8394388;28;20397;-53
2022/08/04 13:21:52;;;;;;;9.80;1.90;;;;;;;34.66;49.33;100243.16;8379453;28;20050;-53
2022/08/04 13:25:56;;;;;;;8.18;2.35;;;;;;;34.73;49.53;100243.63;8366494;28;20045;-51
2022/08/04 13:29:57;;;;;;;5.10;1.90;;;;;;;34.57;49.25;100251.44;8364691;28;20493;-52
2022/08/04 13:34:07;;;;;;;7.82;1.75;;;;;;;34.05;50.61;100233.97;8360643;28;20036;-51
2022/08/04 13:38:11;;;;;;;6.03;2.00;;;;;;;34.07;50.19;100229.72;8363111;28;20048;-50
2022/08/04 13:42:13;;;;;;;7.35;1.77;;;;;;;34.06;49.75;100228.06;8364349;28;20449;-53
2022/08/04 13:46:19;;;;;;;6.57;2.00;;;;;;;33.46;49.92;100235.25;8370706;28;20344;-50
2022/08/04 13:50:25;;;;;;;7.20;2.05;;;;;;;33.68;50.61;100249.56;8375141;28;20086;-51
2022/08/04 13:54:42;;;;;;;4.93;1.83;;;;;;;33.75;49.90;100238.78;8368467;28;20032;-52
2022/08/04 13:58:46;;;;;;;8.55;2.40;;;;;;;33.11;50.22;100243.97;8373977;28;20071;-51
2022/08/04 14:02:51;;;;;;;3.78;1.88;;;;;;;32.68;50.89;100244.03;8366178;28;20044;-53
2022/08/04 14:07:01;;;;;;;5.57;2.05;;;;;;;32.78;51.38;100233.59;8363835;28;20064;-53
2022/08/04 14:11:01;;;;;;;5.78;1.50;;;;;;;32.69;50.98;100234.53;8366684;28;20110;-53
2022/08/04 14:15:02;;;;;;;8.43;1.77;;;;;;;32.51;51.73;100238.88;8357059;28;20060;-52
2022/08/04 14:19:02;;;;;;;8.40;1.70;;;;;;;32.57;51.40;100237.69;8358415;28;20037;-53
2022/08/04 14:23:03;;;;;;;5.28;1.20;;;;;;;32.55;50.82;100225.09;8364248;28;20036;-52
2022/08/04 14:27:03;;;;;;;2.10;1.10;;;;;;;32.45;51.26;100225.19;8368929;28;20041;-50
2022/08/04 14:31:10;;;;;;;3.85;1.35;;;;;;;32.21;51.16;100227.84;8363972;28;20291;-52
2022/08/04 14:35:11;;;;;;;7.97;1.83;;;;;;;32.48;51.26;100217.06;8365806;28;20029;-53
2022/08/04 14:39:11;;;;;;;6.40;1.35;;;;;;;32.69;51.00;100221.34;8359301;28;20068;-52
2022/08/04 14:43:17;;;;;;;9.45;1.58;;;;;;;32.36;52.12;100229.72;8361185;28;20083;-52
2022/08/04 14:47:18;;;;;;;11.40;2.00;;;;;;;32.01;52.99;100227.94;8364760;28;20048;-53
2022/08/04 14:51:18;;;;;;;6.00;1.38;;;;;;;31.79;53.97;100230.25;8365648;28;20029;-52
2022/08/04 14:55:23;;;;;;;6.07;1.60;;;;;;;31.51;54.98;100222.53;8373640;28;20491;-50
2022/08/04 14:59:24;;;;;;;4.03;1.60;;;;;;;31.42;55.31;100224.25;8366792;28;20036;-52
2022/08/04 15:03:26;;;;;;;6.43;1.70;;;;;;;31.20;55.98;100226.50;8374690;28;20037;-50
2022/08/04 15:07:27;;;;;;;5.90;1.80;;;;;;;31.13;56.39;100224.00;8360737;28;20029;-52
2022/08/04 15:11:27;;;;;;;6.82;1.90;;;;;;;30.99;57.02;100227.66;8358334;28;20058;-51
2022/08/04 15:15:28;;;;;;;6.15;1.88;;;;;;;30.90;57.06;100232.13;8361593;28;20064;-53
2022/08/04 15:19:30;;;;;;;5.35;1.67;;;;;;;30.75;57.45;100224.59;8364196;28;20028;-49
2022/08/04 15:23:30;;;;;;;8.05;2.00;;;;;;;30.66;58.24;100222.59;8366978;28;20476;-52
2022/08/04 15:27:36;;;;;;;4.32;1.63;;;;;;;30.55;58.24;100218.97;8354713;28;20036;-52
2022/08/04 15:31:39;;;;;;;8.52;1.83;;;;;;;30.56;58.53;100231.00;8367922;28;20481;-50
2022/08/04 15:35:43;;;;;;;8.45;2.33;;;;;;;30.41;58.80;100231.81;8365013;28;20037;-49
2022/08/04 15:39:50;;;;;;;7.28;2.10;;;;;;;30.40;59.24;100222.59;8361570;28;20056;-51
2022/08/04 15:44:30;;;;;;;7.30;1.60;;;;;;;30.38;59.44;100238.78;8361250;28;20068;-49
2022/08/04 15:48:32;;;;;;;8.18;1.85;;;;;;;30.55;59.66;100262.81;8349311;28;20446;-50
2022/08/04 15:57:08;;;;;;;8.60;2.60;;;;;;;30.02;61.41;100253.75;8369015;27;20410;-50
2022/08/04 16:01:13;;;;;;;8.95;2.28;;;;;;;30.11;61.26;100252.09;8366530;28;20102;-52
2022/08/04 16:09:26;;;;;;;7.90;2.50;;;;;;;29.78;64.12;100246.94;8351429;27;20420;-52
2022/08/04 16:13:26;;;;;;;7.95;2.63;;;;;;;29.43;65.66;100245.91;8333248;28;20034;-48
2022/08/04 16:17:27;;;;;;;10.77;2.72;;;;;;;29.53;64.57;100244.00;8340225;28;20037;-49
2022/08/04 16:21:28;;;;;;;12.55;2.97;;;;;;;29.73;64.69;100244.13;8336250;28;20456;-50
2022/08/04 16:25:50;;;;;;;8.77;2.45;;;;;;;29.74;62.12;100237.47;8344491;28;20122;-53
2022/08/04 16:30:03;;;;;;;10.00;2.78;;;;;;;29.67;63.60;100228.50;8341865;28;20087;-49
2022/08/04 16:34:03;;;;;;;6.63;2.60;;;;;;;29.62;64.03;100225.69;8345370;28;20071;-49
2022/08/04 16:38:19;;;;;;;6.13;2.45;;;;;;;29.72;64.27;100228.53;8351805;28;20044;-49
2022/08/04 16:46:41;;;;;;;8.98;2.60;;;;;;;29.62;63.35;100242.44;8294106;28;20377;-50
2022/08/04 16:50:50;;;;;;;6.25;2.60;;;;;;;29.69;63.36;100237.44;8294456;28;20057;-49
2022/08/04 16:54:51;;;;;;;10.95;3.10;;;;;;;29.79;63.23;100220.72;8294338;28;20454;-49
2022/08/04 16:58:52;;;;;;;9.77;3.35;;;;;;;30.11;61.94;100207.47;8295942;28;20069;-49
2022/08/04 17:02:52;;;;;;;9.68;2.85;;;;;;;30.39;62.31;100226.50;8292473;28;20053;-49
2022/08/04 17:07:00;;;;;;;6.93;2.60;;;;;;;30.35;62.28;100225.38;8288141;28;21184;-49
2022/08/04 17:11:01;;;;;;;9.15;2.90;;;;;;;30.27;61.80;100219.50;8289730;28;20065;-49
2022/08/04 17:15:01;;;;;;;6.80;2.65;;;;;;;29.98;62.48;100218.31;8290945;28;20037;-53
2022/08/04 17:19:04;;;;;;;9.02;2.80;;;;;;;30.00;62.25;100210.47;8289921;28;20047;-50
2022/08/04 17:23:23;;;;;;;5.68;2.92;;;;;;;30.07;62.57;100192.38;8290549;28;20042;-50
2022/08/04 17:27:23;;;;;;;14.38;3.00;;;;;;;30.11;62.64;100179.56;8292636;28;20065;-51
2022/08/04 17:31:25;;;;;;;7.10;2.80;;;;;;;30.13;62.26;100194.06;8296839;28;20033;-50
2022/08/04 17:35:26;;;;;;;12.65;3.15;;;;;;;30.15;62.17;100191.84;8297114;28;20100;-50
2022/08/04 17:39:29;;;;;;;7.43;2.60;;;;;;;30.20;62.02;100191.03;8297955;28;20042;-50
2022/08/04 17:43:48;;;;;;;7.07;3.10;;;;;;;30.05;62.67;100194.63;8295288;28;20495;-50
2022/08/04 17:47:51;;;;;;;12.55;3.20;;;;;;;30.09;63.02;100197.69;8295137;28;20470;-49
2022/08/04 17:51:55;;;;;;;6.60;3.47;;;;;;;29.92;62.79;100197.09;8278395;28;20060;-51
2022/08/04 17:55:56;;;;;;;10.52;2.80;;;;;;;29.93;63.73;100195.97;8245455;28;21583;-50
2022/08/04 17:59:58;;;;;;;8.23;2.50;;;;;;;29.81;63.90;100196.22;8232130;28;20540;-53
2022/08/04 18:03:58;;;;;;;7.53;2.78;;;;;;;29.70;64.23;100202.84;8231046;28;20534;-49
2022/08/04 18:08:06;;;;;;;6.45;2.75;;;;;;;29.66;64.70;100203.69;8231079;28;20091;-49
2022/08/04 18:12:11;;;;;;;11.13;3.65;;;;;;;29.59;64.42;100198.34;8229893;28;20583;-51
2022/08/04 18:16:11;;;;;;;6.55;2.97;;;;;;;29.57;64.82;100214.50;8231854;28;20160;-51
2022/08/04 18:20:14;;;;;;;9.53;3.33;;;;;;;29.30;66.22;100199.84;8275231;28;20080;-49
2022/08/04 18:24:14;;;;;;;8.60;3.00;;;;;;;29.16;66.96;100215.38;8274009;28;20277;-49
2022/08/04 18:28:14;;;;;;;10.15;4.03;;;;;;;29.04;67.44;100225.00;8274662;28;20121;-49
2022/08/04 18:32:15;;;;;;;8.90;3.50;;;;;;;28.91;67.97;100222.69;8273235;28;20213;-49
2022/08/04 18:36:15;;;;;;;9.18;3.38;;;;;;;28.84;68.97;100217.34;8274041;28;20030;-51
2022/08/04 18:40:16;;;;;;;13.45;4.20;;;;;;;28.73;69.59;100226.75;8274527;28;20044;-49
2022/08/04 18:44:16;;;;;;;9.95;3.83;;;;;;;28.58;70.51;100229.38;8273792;28;20069;-50
2022/08/04 18:48:17;;;;;;;10.88;3.92;;;;;;;28.40;71.98;100229.75;8267351;28;20425;-51
2022/08/04 18:52:17;;;;;;;7.80;3.53;;;;;;;28.30;72.54;100221.31;8270839;28;20117;-50
2022/08/04 18:56:18;;;;;;;10.07;3.80;;;;;;;28.13;73.07;100228.91;8271092;28;20116;-50
2022/08/04 19:00:18;;;;;;;9.00;3.55;;;;;;;28.00;74.10;100240.44;8271813;28;20567;-50
2022/08/04 19:04:19;;;;;;;12.88;3.90;;;;;;;27.84;74.46;100239.38;8270815;28;20057;-49
2022/08/04 19:08:19;;;;;;;17.05;3.92;;;;;;;27.74;74.48;100249.53;8269821;28;20486;-50
2022/08/04 19:12:20;;;;;;;12.52;3.85;;;;;;;27.62;75.03;100265.47;8271976;28;20042;-49
2022/08/04 19:16:20;;;;;;;9.75;3.58;;;;;;;27.51;75.17;100272.00;8271437;28;20034;-51
2022/08/04 19:20:21;;;;;;;10.95;3.72;;;;;;;27.37;74.78;100265.13;8271873;28;20061;-50
2022/08/04 19:24:22;;;;;;;10.63;3.10;;;;;;;27.22;75.34;100285.16;8270816;28;20450;-49
2022/08/04 19:28:22;;;;;;;7.18;3.28;;;;;;;27.08;74.93;100283.00;8270495;28;20057;-50
2022/08/04 19:32:23;;;;;;;9.55;3.53;;;;;;;26.99;75.04;100295.63;8270600;28;20034;-49
2022/08/04 19:36:26;;;;;;;10.43;3.30;;;;;;;26.86;75.38;100301.50;8271043;28;20034;-49
2022/08/04 19:40:26;;;;;;;12.82;3.88;;;;;;;26.74;75.47;100307.09;8270644;28;20285;-50
2022/08/04 19:44:27;;;;;;;12.00;3.47;;;;;;;26.57;75.91;100318.19;8269953;28;20135;-50
2022/08/04 19:48:27;;;;;;;9.25;3.63;;;;;;;26.48;76.19;100322.44;8270629;28;20128;-52
2022/08/04 19:52:28;;;;;;;4.95;3.67;;;;;;;26.39;76.61;100320.31;8279788;28;20038;-51
2022/08/04 19:56:28;;;;;;;9.90;3.23;;;;;;;26.31;77.01;100310.44;8284107;28;20291;-49
2022/08/04 20:00:29;;;;;;;10.43;3.50;;;;;;;26.24;77.09;100320.84;8279738;28;20327;-48
2022/08/04 20:04:29;;;;;;;9.35;3.10;;;;;;;26.16;77.50;100320.38;8284835;28;20395;-49
2022/08/04 20:08:30;;;;;;;7.37;3.40;;;;;;;25.93;78.52;100328.75;8286230;28;20460;-50
2022/08/04 20:12:31;;;;;;;8.52;3.63;;;;;;;25.83;79.16;100329.38;8286659;28;20284;-49
2022/08/04 20:16:31;;;;;;;10.02;3.42;;;;;;;25.70;79.61;100340.72;8286044;28;20151;-52
2022/08/04 20:20:32;;;;;;;9.57;4.22;;;;;;;25.86;78.71;100339.13;8286596;28;20030;-49